Latest Weather Observations for Clare

IDS60801

Issued at 7:01 pm CDT Saturday 13 February 2016 (issued every 30 minutes, with the page automatically refreshed every 10 minutes)

About weather observations | Map of weather stations | Latest weather observations for SA | Other Formats
Station Details ID: 021131 Name: CLARE HIGH SCHOOL Lat: -33.82 Lon: 138.59 Height: 395.0 m
Data from the previous 72 hours. | See also: Recent months at Clare
Date/Time
CDT
Temp
°C
App
Temp
°C
Dew
Point
Rel
Hum
%
Delta-T
°C
Wind Press
QNH
hPa
Press
MSL
hPa
Rain
since 9 am
mm
Dir
 
Spd
km/h
Gust
km/h
Spd
kts
Gust
kts
13/07:00pm 23.3 21.4 14.3 57 5.4 S 17 26 9 14 1012.9 - 0.0
13/06:30pm 24.7 21.9 12.6 47 7.1 SSW 19 35 10 19 1012.8 - 0.0
13/06:00pm 27.8 24.4 10.5 34 9.9 SW 19 30 10 16 1012.4 1010.7 0.0
13/05:30pm 29.0 25.2 9.7 30 11.0 SW 20 33 11 18 1012.3 - 0.0
13/05:00pm 29.9 25.2 9.4 28 11.7 SW 24 37 13 20 1012.3 - 0.0
13/04:30pm 31.0 27.1 10.9 29 11.8 WSW 22 39 12 21 1012.3 - 0.0
13/04:00pm 32.2 28.2 8.4 23 13.5 WSW 19 30 10 16 1012.2 - 0.0
13/03:30pm 33.1 27.5 5.6 18 15.0 SW 24 37 13 20 1012.2 - 0.0
13/03:00pm 34.1 29.3 5.6 17 15.6 WSW 20 30 11 16 1012.3 1010.6 0.0
13/02:30pm 33.6 28.2 2.4 14 16.2 WSW 20 33 11 18 1012.6 - 0.0
13/02:00pm 32.5 27.5 3.5 16 15.2 WSW 19 33 10 18 1012.8 - 0.0
13/01:30pm 32.2 26.9 3.2 16 15.1 W 20 37 11 20 1013.0 - 0.0
13/01:00pm 31.4 26.6 2.6 16 14.8 W 17 22 9 12 1013.3 - 0.0
13/12:30pm 31.2 27.0 1.5 15 14.9 WSW 13 24 7 13 1013.6 - 0.0
13/12:00pm 30.5 26.2 1.0 15 14.6 W 13 24 7 13 1013.7 1012.0 0.0
13/11:30am 29.6 25.6 0.2 15 14.3 W 11 19 6 10 1013.8 - 0.0
13/11:00am 28.8 26.1 0.5 16 13.8 WNW 4 9 2 5 1013.8 - 0.0
13/10:30am 27.6 23.9 -3.3 13 13.9 WSW 7 15 4 8 1014.1 - 0.0
13/10:00am 26.5 23.8 3.7 23 11.6 WSW 7 13 4 7 1014.1 - 0.0
13/09:30am 25.2 23.8 5.4 28 10.3 W 2 7 1 4 1014.3 - 0.0
13/09:00am 23.1 22.5 7.2 36 8.4 CALM 0 0 0 0 1014.3 1012.6 0.0
13/08:30am 21.0 20.3 6.9 40 7.3 CALM 0 0 0 0 1014.2 - 0.0
13/08:00am 16.3 15.7 7.3 55 4.6 CALM 0 0 0 0 1013.9 - 0.0
13/07:30am 13.5 12.7 6.4 62 3.5 CALM 0 0 0 0 1013.7 - 0.0
13/07:00am 12.0 10.8 6.5 69 2.7 SW 2 13 1 7 1013.4 - 0.0
13/06:30am 11.7 10.9 6.4 70 2.6 CALM 0 0 0 0 1013.1 - 0.0
13/06:00am 12.0 11.2 6.3 68 2.8 CALM 0 0 0 0 1013.0 1011.2 0.0
13/05:30am 12.1 11.2 6.2 67 2.8 CALM 0 0 0 0 1013.1 - 0.0
13/05:00am 12.6 11.7 6.0 64 3.2 CALM 0 0 0 0 1013.0 - 0.0
13/04:30am 12.9 12.1 6.3 64 3.2 CALM 0 0 0 0 1012.8 - 0.0
13/04:00am 13.7 12.8 6.1 60 3.7 CALM 0 0 0 0 1012.8 - 0.0
13/03:30am 13.3 12.6 7.1 66 3.1 CALM 0 0 0 0 1013.0 - 0.0
13/03:00am 13.6 12.8 6.7 63 3.4 CALM 0 0 0 0 1013.2 1011.5 0.0
13/02:30am 14.0 13.3 6.8 62 3.6 CALM 0 0 0 0 1013.1 - 0.0
13/02:00am 14.3 13.5 6.6 60 3.8 CALM 0 0 0 0 1013.4 - 0.0
13/01:30am 15.2 14.3 6.0 54 4.5 CALM 0 0 0 0 1013.5 - 0.0
13/01:00am 15.2 14.5 7.0 58 4.1 CALM 0 0 0 0 1013.8 - 0.0
13/12:30am 16.6 15.7 5.9 49 5.3 CALM 0 0 0 0 1013.9 - 0.0
13/12:00am 17.5 16.6 6.1 47 5.7 CALM 0 0 0 0 1014.0 1012.3 0.0
 
Date/Time
CDT
Temp
°C
App
Temp
°C
Dew
Point
Rel
Hum
%
Delta-T
°C
Wind Press
QNH
hPa
Press
MSL
hPa
Rain
since 9 am
mm
Dir
 
Spd
km/h
Gust
km/h
Spd
kts
Gust
kts
12/11:30pm 18.8 18.1 6.9 46 6.1 CALM 0 0 0 0 1014.1 - 0.0
12/11:00pm 20.4 19.9 7.7 44 6.7 CALM 0 0 0 0 1014.4 - 0.0
12/10:30pm 22.0 21.1 9.2 44 7.0 SE 4 13 2 7 1014.5 - 0.0
12/10:00pm 22.9 20.4 9.7 43 7.3 S 13 19 7 10 1014.5 - 0.0
12/09:30pm 23.1 20.7 10.2 44 7.2 S 13 19 7 10 1014.3 - 0.0
12/09:00pm 24.6 21.5 9.0 37 8.6 S 15 26 8 14 1014.0 1012.3 0.0
12/08:30pm 26.6 24.2 7.1 29 10.5 S 9 17 5 9 1013.7 - 0.0
12/08:00pm 28.2 25.9 7.4 27 11.4 S 9 20 5 11 1013.4 - 0.0
12/07:30pm 30.0 26.9 7.2 24 12.5 SSW 13 22 7 12 1013.2 - 0.0
12/07:00pm 30.9 27.1 6.0 21 13.5 S 15 24 8 13 1013.0 - 0.0
12/06:30pm 31.3 26.7 5.7 20 13.8 SSW 19 32 10 17 1012.9 - 0.0
12/06:00pm 33.1 30.0 5.6 18 15.0 SW 11 26 6 14 1012.6 1010.8 0.0
12/05:30pm 33.3 29.5 4.1 16 15.5 WSW 13 24 7 13 1012.6 - 0.0
12/05:00pm 33.9 30.2 4.6 16 15.8 SW 13 24 7 13 1012.4 - 0.0
12/04:30pm 33.5 30.1 4.2 16 15.6 S 11 20 6 11 1012.7 - 0.0
12/04:00pm 33.0 29.2 2.0 14 15.9 SW 11 20 6 11 1012.9 - 0.0
12/03:30pm 32.9 28.4 -0.2 12 16.4 WNW 13 22 7 12 1013.1 - 0.0
12/03:00pm 32.9 29.5 1.9 14 15.9 WSW 9 20 5 11 1013.4 1011.7 0.0
12/02:30pm 32.5 28.1 2.5 15 15.5 W 15 24 8 13 1013.6 - 0.0
12/02:00pm 32.9 29.1 3.8 16 15.4 SW 13 35 7 19 1013.9 - 0.0
12/01:30pm 31.8 28.3 5.3 19 14.2 WNW 13 20 7 11 1014.2 - 0.0
12/01:00pm 31.4 28.7 5.8 20 13.8 W 9 17 5 9 1014.5 - 0.0
12/12:30pm 31.2 29.5 7.6 23 13.1 WNW 6 17 3 9 1014.7 - 0.0
12/12:00pm 30.7 29.3 7.2 23 13.0 NNE 4 13 2 7 1015.1 1013.4 0.0
12/11:30am 29.8 29.1 7.1 24 12.4 CALM 0 6 0 3 1015.4 - 0.0
12/11:00am 29.5 29.6 10.1 30 11.1 CALM 0 7 0 4 1015.7 - 0.0
12/10:30am 27.3 26.8 9.2 32 10.1 E 2 7 1 4 1015.9 - 0.0
12/10:00am 26.3 25.0 10.0 36 9.2 E 7 15 4 8 1015.9 - 0.0
12/09:30am 24.5 23.4 10.0 40 8.1 NE 6 9 3 5 1016.2 - 0.0
12/09:00am 23.3 21.6 10.0 43 7.4 ENE 9 13 5 7 1016.3 1014.6 0.0
12/08:30am 22.2 21.9 10.0 46 6.8 E 2 13 1 7 1016.1 - 0.0
12/08:00am 19.7 20.1 11.2 58 4.7 CALM 0 0 0 0 1016.1 - 0.0
12/07:30am 15.6 15.9 10.8 73 2.6 CALM 0 0 0 0 1015.8 - 0.0
12/07:00am 16.7 16.8 10.3 66 3.5 CALM 0 6 0 3 1015.6 - 0.0
12/06:30am 17.1 17.2 10.2 64 3.7 CALM 0 0 0 0 1015.4 - 0.0
12/06:00am 17.7 17.0 10.1 61 4.1 ESE 4 11 2 6 1015.1 1013.4 0.0
12/05:30am 17.6 17.1 9.2 58 4.5 ESE 2 9 1 5 1015.0 - 0.0
12/05:00am 17.5 16.0 8.6 56 4.7 E 6 13 3 7 1014.9 - 0.0
12/04:30am 13.3 13.1 9.0 75 2.2 CALM 0 9 0 5 1014.8 - 0.0
12/04:00am 13.6 13.4 9.1 74 2.3 CALM 0 0 0 0 1014.8 - 0.0
12/03:30am 14.7 14.4 8.6 67 3.1 CALM 0 0 0 0 1014.9 - 0.0
12/03:00am 14.8 14.6 9.0 68 3.0 CALM 0 0 0 0 1015.3 1013.5 0.0
12/02:30am 15.9 15.5 8.4 61 3.9 CALM 0 0 0 0 1015.4 - 0.0
12/02:00am 17.0 16.7 8.7 58 4.4 CALM 0 0 0 0 1015.6 - 0.0
12/01:30am 17.6 17.3 8.7 56 4.7 CALM 0 0 0 0 1015.8 - 0.0
12/01:00am 19.6 19.2 8.3 48 6.0 CALM 0 11 0 6 1015.8 - 0.0
12/12:30am 20.6 18.8 7.9 44 6.7 SE 7 17 4 9 1015.7 - 0.0
12/12:00am 20.7 19.1 8.7 46 6.4 SSE 7 15 4 8 1015.9 1014.2 0.0
 
Date/Time
CDT
Temp
°C
App
Temp
°C
Dew
Point
Rel
Hum
%
Delta-T
°C
Wind Press
QNH
hPa
Press
MSL
hPa
Rain
since 9 am
mm
Dir
 
Spd
km/h
Gust
km/h
Spd
kts
Gust
kts
11/11:30pm 21.3 19.1 9.2 46 6.6 S 11 17 6 9 1016.2 - 0.0
11/11:00pm 21.7 19.4 8.9 44 6.9 S 11 17 6 9 1016.3 - 0.0
11/10:30pm 21.7 19.9 9.3 45 6.8 S 9 17 5 9 1016.1 - 0.0
11/10:00pm 21.6 21.3 8.5 43 7.0 CALM 0 6 0 3 1015.8 - 0.0
11/09:30pm 22.6 20.9 7.6 38 8.0 SSE 6 9 3 5 1015.5 - 0.0
11/09:00pm 23.2 20.5 7.3 36 8.4 S 11 19 6 10 1015.1 1013.4 0.0
11/08:30pm 24.2 20.7 7.4 34 9.0 S 15 24 8 13 1014.7 - 0.0
11/08:00pm 25.7 21.8 7.3 31 9.9 S 17 28 9 15 1014.6 - 0.0
11/07:30pm 27.7 24.0 8.1 29 10.8 SSW 17 24 9 13 1014.3 - 0.0
11/07:00pm 28.9 24.6 8.0 27 11.6 S 20 33 11 18 1014.0 - 0.0
11/06:30pm 30.1 26.0 8.5 26 12.1 S 20 33 11 18 1013.7 - 0.0
11/06:00pm 30.4 27.0 9.3 27 12.0 SSW 17 30 9 16 1013.5 1011.8 0.0
11/05:30pm 31.2 26.8 8.8 25 12.7 SSW 22 35 12 19 1013.3 - 0.0
11/05:00pm 31.8 29.1 7.5 22 13.5 S 11 20 6 11 1013.3 - 0.0
11/04:30pm 31.7 27.8 9.3 25 12.8 SW 20 37 11 20 1012.9 - 0.0
11/04:00pm 32.3 28.9 4.2 17 14.9 E 11 17 6 9 1013.5 - 0.0
11/03:30pm 32.4 29.3 3.4 16 15.2 SSW 9 24 5 13 1013.7 - 0.0
11/03:00pm 31.8 28.6 2.9 16 14.9 E 9 17 5 9 1013.9 1012.2 0.0
11/02:30pm 31.8 29.7 3.8 17 14.7 ENE 4 15 2 8 1014.2 - 0.0
11/02:00pm 31.5 27.2 3.5 17 14.6 SW 15 20 8 11 1014.4 - 0.0
11/01:30pm 31.2 28.6 4.1 18 14.2 S 7 15 4 8 1014.8 - 0.0
11/01:00pm 29.5 26.6 4.9 21 13.0 E 9 17 5 9 1015.0 - 0.0
11/12:30pm 29.5 26.4 5.6 22 12.8 E 11 19 6 10 1015.1 - 0.0
11/12:00pm 28.8 25.5 7.9 27 11.5 E 15 24 8 13 1015.6 1013.9 0.0
11/11:30am 27.5 23.5 6.8 27 11.1 E 17 24 9 13 1015.9 - 0.0
11/11:00am 27.2 23.7 7.1 28 10.9 E 15 24 8 13 1016.2 - 0.0
11/10:30am 26.5 22.7 7.5 30 10.3 ENE 17 24 9 13 1016.3 - 0.0
11/10:00am 25.9 23.0 8.0 32 9.8 ESE 13 20 7 11 1016.4 - 0.0
11/09:30am 25.0 21.7 8.1 34 9.2 E 15 26 8 14 1016.4 - 0.0
11/09:00am 23.1 20.3 8.4 39 7.9 E 13 22 7 12 1016.2 1014.5 0.0
11/08:30am 21.8 18.9 8.0 41 7.4 ESE 13 20 7 11 1016.2 - 0.0
11/08:00am 21.2 18.5 7.4 41 7.2 ESE 11 20 6 11 1015.9 - 0.0
11/07:30am 20.3 17.4 6.3 40 7.2 ESE 11 20 6 11 1015.7 - 0.0
11/07:00am 19.5 16.9 5.9 41 6.9 E 9 17 5 9 1015.5 - 0.0
11/06:30am 19.9 17.3 6.3 41 6.9 ESE 9 17 5 9 1015.4 - 0.0
11/06:00am 19.9 17.3 6.3 41 6.9 ESE 9 17 5 9 1014.9 1013.2 0.0
11/05:30am 20.0 17.4 6.0 40 7.1 ESE 9 20 5 11 1014.6 - 0.0
11/05:00am 19.9 16.9 5.9 40 7.1 ESE 11 19 6 10 1014.4 - 0.0
11/04:30am 19.4 16.7 5.8 41 6.8 ESE 9 15 5 8 1014.3 - 0.0
11/04:00am 19.4 16.7 5.5 40 7.0 SE 9 17 5 9 1014.2 - 0.0
11/03:00am 19.3 17.4 6.8 44 6.4 SE 6 13 3 7 1014.3 1012.6 0.0
11/02:30am 19.7 17.7 6.4 42 6.8 SE 6 13 3 7 1014.5 - 0.0
11/02:00am 20.2 17.8 5.4 38 7.4 ESE 7 13 4 7 1014.7 - 0.0
11/01:30am 20.2 18.1 3.9 34 8.0 E 4 11 2 6 1015.1 - 0.0
11/01:00am 20.9 18.2 3.6 32 8.4 E 7 15 4 8 1015.3 - 0.0
11/12:30am 20.7 18.1 6.3 39 7.4 SE 9 15 5 8 1015.1 - 0.0
11/12:00am 19.8 19.5 10.0 53 5.4 ESE 2 7 1 4 1015.3 1013.5 0.0
 
Date/Time
CDT
Temp
°C
App
Temp
°C
Dew
Point
Rel
Hum
%
Delta-T
°C
Wind Press
QNH
hPa
Press
MSL
hPa
Rain
since 9 am
mm
Dir
 
Spd
km/h
Gust
km/h
Spd
kts
Gust
kts
10/11:30pm 18.4 19.1 12.2 67 3.5 CALM 0 0 0 0 1015.1 - 0.0
10/11:00pm 18.9 19.4 11.5 62 4.1 CALM 0 0 0 0 1015.1 - 0.0
10/10:30pm 20.7 21.1 11.3 55 5.3 CALM 0 7 0 4 1015.0 - 0.0
10/10:00pm 21.3 21.3 11.3 53 5.6 SE 2 7 1 4 1015.0 - 0.0
10/09:30pm 21.5 20.3 11.5 53 5.7 S 9 13 5 7 1014.9 - 0.0
10/09:00pm 22.5 22.1 9.6 44 7.1 S 2 9 1 5 1014.9 1013.2 0.0
10/08:30pm 24.1 22.1 8.5 37 8.5 S 9 15 5 8 1014.8 - 0.0
10/08:00pm 25.8 22.8 7.9 32 9.7 S 13 20 7 11 1014.6 - 0.0
10/07:30pm 27.8 24.8 6.0 25 11.6 S 11 19 6 10 1014.2 - 0.0

Other Formats:

Comma delimited format used in spreadsheet applications
http://www.bom.gov.au/fwo/IDS60801/IDS60801.95667.axf

JavaScript Object Notation format (JSON) in row-major order
http://www.bom.gov.au/fwo/IDS60801/IDS60801.95667.json